AGR weather

Agra Airport
Uttar Pradesh, India

Public forecast

Using degrees Celsius for public forecast. Weather courtesy of forecast.io.

METAR (pilot weather report)

Retrieved 2019/09/17 03:30 UTC (25 minutes ago):

VIAG 170330Z VRB02KT 4500 BR FEW025 SCT250 32/29 Q1005 BECMG 5000

TAF (pilot weather forecast)

Retrieved 2019/09/17 00:30 UTC (3 hours ago):

TAF VIAG 162130Z 1700/1712 VRB02KT 4000 BR SCT030 SCT250 BECMG 1704/1705 34005KT 6000 TEMPO 1709/1712 FEW030 TCU/CB